Time;durP1;ratioP1;P1;durP2;ratioP2;P2;SDS_P1;SDS_P2;PMS_P1;PMS_P2;Temp;Humidity;BMP_temperature;BMP_pressure;BME280_temperature;BME280_humidity;BME280_pressure;Samples;Min_cycle;Max_cycle;Signal;HPM_P1;HPM_P2
2023/06/22 04:30:08;;;;;;;6.32;2.95;;;19.80;73.20;;;;;;6047979;23;20019;31
2023/06/22 04:32:36;;;;;;;6.15;3.20;;;19.80;73.20;;;;;;4892097;29;20131;-80
2023/06/22 04:35:06;;;;;;;5.25;2.83;;;19.90;72.80;;;;;;4895629;29;20084;-81
2023/06/22 04:37:32;;;;;;;5.53;3.05;;;19.80;73.00;;;;;;4895661;29;20063;-82
2023/06/22 04:39:58;;;;;;;6.40;3.13;;;19.90;73.00;;;;;;4897036;29;20472;-81
2023/06/22 04:42:25;;;;;;;6.30;3.00;;;19.80;72.80;;;;;;4895791;29;20032;-84
2023/06/22 04:44:51;;;;;;;5.55;3.15;;;19.90;72.70;;;;;;4893662;29;20032;-81
2023/06/22 04:47:17;;;;;;;6.47;2.97;;;19.90;72.60;;;;;;4897251;29;20987;-80
2023/06/22 04:49:43;;;;;;;5.43;2.60;;;19.90;72.50;;;;;;4895484;29;20029;-86
2023/06/22 04:52:11;;;;;;;6.00;2.90;;;19.90;72.50;;;;;;4894396;29;20028;-81
2023/06/22 04:54:38;;;;;;;7.97;2.92;;;20.00;72.20;;;;;;4893608;29;20032;-80
2023/06/22 04:57:09;;;;;;;7.00;3.03;;;20.00;72.40;;;;;;4893708;29;20064;-81
2023/06/22 04:59:36;;;;;;;4.80;2.70;;;19.90;72.40;;;;;;4893165;29;20039;-80
2023/06/22 05:02:02;;;;;;;6.38;3.13;;;19.90;72.40;;;;;;4893559;29;20511;-80
2023/06/22 05:04:32;;;;;;;6.50;2.97;;;19.90;72.40;;;;;;4883341;29;20036;-80
2023/06/22 05:07:00;;;;;;;7.78;2.72;;;19.90;72.10;;;;;;4900169;29;20096;-80
2023/06/22 05:09:25;;;;;;;6.25;3.50;;;19.90;72.30;;;;;;4899832;29;20105;-80
2023/06/22 05:11:51;;;;;;;7.00;3.17;;;19.90;72.00;;;;;;4886591;29;20477;-80
2023/06/22 05:14:18;;;;;;;7.90;3.00;;;19.90;71.90;;;;;;4900350;29;20036;-83
2023/06/22 05:16:45;;;;;;;5.85;2.70;;;19.90;71.90;;;;;;4898458;29;20028;-81
2023/06/22 05:19:12;;;;;;;7.22;3.30;;;19.80;72.00;;;;;;4903870;29;20032;-80
2023/06/22 05:21:38;;;;;;;5.22;2.75;;;19.90;71.90;;;;;;4921289;29;20466;-78
2023/06/22 05:24:04;;;;;;;5.90;3.15;;;19.90;71.80;;;;;;4909435;29;20025;-81
2023/06/22 05:26:32;;;;;;;7.65;3.13;;;19.90;71.30;;;;;;4899638;29;20025;-82
2023/06/22 05:28:59;;;;;;;6.22;3.10;;;20.00;71.30;;;;;;4900337;29;20115;-84
2023/06/22 05:31:24;;;;;;;6.07;3.40;;;20.00;71.30;;;;;;4916472;29;20099;-79
2023/06/22 05:33:52;;;;;;;6.47;3.72;;;20.00;70.80;;;;;;4921234;29;20036;-81
2023/06/22 05:36:24;;;;;;;5.93;3.45;;;20.00;70.90;;;;;;4923108;29;20038;-79
2023/06/22 05:38:50;;;;;;;5.85;2.95;;;20.00;70.90;;;;;;4936837;29;20036;-80
2023/06/22 05:41:16;;;;;;;5.70;3.15;;;20.10;70.60;;;;;;4932709;29;20024;-80
2023/06/22 05:43:42;;;;;;;6.40;3.28;;;20.10;70.50;;;;;;4921628;29;20040;-80
2023/06/22 05:46:07;;;;;;;7.25;3.33;;;20.10;70.60;;;;;;4922932;29;20451;-79
2023/06/22 05:48:33;;;;;;;6.20;3.20;;;20.20;70.40;;;;;;4922515;29;20096;-79
2023/06/22 05:50:59;;;;;;;7.60;2.92;;;20.20;70.10;;;;;;4922766;29;20558;-82
2023/06/22 05:53:24;;;;;;;7.95;2.85;;;20.20;69.60;;;;;;4921894;29;20478;-84
2023/06/22 05:55:50;;;;;;;7.88;2.95;;;20.30;69.60;;;;;;4922142;29;20443;-79
2023/06/22 05:58:16;;;;;;;5.65;2.60;;;20.30;69.50;;;;;;4922536;29;20036;-79
2023/06/22 06:00:43;;;;;;;5.13;2.67;;;20.30;69.00;;;;;;4921197;29;20066;-79
2023/06/22 06:03:09;;;;;;;6.05;2.80;;;20.40;69.10;;;;;;4921582;29;21169;-79
2023/06/22 06:05:36;;;;;;;5.07;2.70;;;20.40;68.80;;;;;;4922646;29;20048;-79
2023/06/22 06:08:04;;;;;;;6.78;3.03;;;20.50;68.60;;;;;;4921647;29;20036;-79
2023/06/22 06:10:31;;;;;;;7.82;3.15;;;20.60;68.60;;;;;;4926860;29;20386;-79
2023/06/22 06:12:57;;;;;;;6.60;2.50;;;20.60;68.20;;;;;;4939936;29;20040;-79
2023/06/22 06:15:24;;;;;;;7.47;2.80;;;20.70;68.40;;;;;;4932031;29;20035;-79
2023/06/22 06:17:53;;;;;;;4.75;2.60;;;20.80;68.10;;;;;;4918143;29;20029;-79
2023/06/22 06:20:21;;;;;;;6.38;2.70;;;20.80;67.70;;;;;;4903714;29;20076;-79
2023/06/22 06:22:47;;;;;;;6.68;2.63;;;20.90;67.50;;;;;;4914863;29;20039;-79
2023/06/22 06:25:15;;;;;;;7.43;3.00;;;21.00;67.30;;;;;;4922182;29;20553;-79
2023/06/22 06:27:45;;;;;;;5.88;2.63;;;21.00;66.90;;;;;;4921754;29;20040;-80
2023/06/22 06:30:12;;;;;;;6.20;2.78;;;21.10;66.70;;;;;;4920680;29;20517;-79
2023/06/22 06:32:39;;;;;;;5.82;2.80;;;21.10;66.80;;;;;;4920877;29;20490;-79
2023/06/22 06:35:09;;;;;;;5.45;2.72;;;21.20;66.60;;;;;;4921439;29;20637;-79
2023/06/22 06:37:43;;;;;;;7.07;3.03;;;21.20;66.60;;;;;;4921929;29;20040;-79
2023/06/22 06:40:11;;;;;;;6.30;3.10;;;21.20;66.60;;;;;;4921880;29;20163;-79
2023/06/22 06:42:40;;;;;;;6.82;2.70;;;21.20;66.70;;;;;;4921322;29;20024;-79
2023/06/22 06:45:06;;;;;;;5.55;2.70;;;21.30;66.70;;;;;;4920124;29;20038;-79
2023/06/22 06:47:32;;;;;;;6.43;2.45;;;21.30;66.60;;;;;;4921883;29;20455;-79
2023/06/22 06:49:58;;;;;;;5.78;2.72;;;21.30;66.50;;;;;;4921665;29;20091;-79
2023/06/22 06:52:23;;;;;;;5.00;2.80;;;21.40;66.50;;;;;;4919996;29;20036;-79
2023/06/22 06:54:51;;;;;;;6.25;2.95;;;21.40;66.10;;;;;;4920605;29;20123;-79
2023/06/22 06:57:17;;;;;;;5.47;2.40;;;21.50;66.20;;;;;;4921580;29;20020;-79
2023/06/22 06:59:43;;;;;;;4.93;2.67;;;21.50;66.10;;;;;;4918563;29;20034;-79
2023/06/22 07:02:08;;;;;;;6.32;2.70;;;21.50;66.00;;;;;;4921787;29;20107;-79
2023/06/22 07:04:34;;;;;;;7.10;2.88;;;21.60;66.00;;;;;;4921383;29;20036;-79
2023/06/22 07:07:01;;;;;;;4.60;2.60;;;21.70;65.60;;;;;;4920875;29;20040;-79
2023/06/22 07:09:27;;;;;;;4.25;2.45;;;21.80;65.20;;;;;;4920174;29;20056;-79
2023/06/22 07:11:53;;;;;;;4.57;2.60;;;21.80;64.80;;;;;;4923394;29;20091;-79
2023/06/22 07:14:18;;;;;;;7.68;2.60;;;21.90;65.00;;;;;;4924600;29;20040;-79
2023/06/22 07:16:44;;;;;;;4.88;2.88;;;22.10;64.50;;;;;;4921304;29;20103;-79
2023/06/22 07:19:12;;;;;;;8.50;2.70;;;22.10;64.40;;;;;;4921119;29;20486;-79
2023/06/22 07:21:39;;;;;;;4.55;2.58;;;22.20;64.20;;;;;;4920148;29;20046;-78
2023/06/22 07:24:05;;;;;;;6.20;2.97;;;22.30;63.90;;;;;;4921079;29;20077;-78
2023/06/22 07:26:32;;;;;;;6.75;2.85;;;22.30;63.60;;;;;;4921053;29;20039;-78
2023/06/22 07:28:57;;;;;;;5.88;2.80;;;22.40;63.40;;;;;;4903490;29;20517;-78
2023/06/22 07:31:26;;;;;;;6.95;2.67;;;22.50;63.50;;;;;;4935523;29;20055;-78
2023/06/22 07:33:52;;;;;;;4.68;2.20;;;22.70;62.60;;;;;;4927225;29;20083;-78
2023/06/22 07:36:18;;;;;;;6.43;2.85;;;23.00;62.00;;;;;;4913048;29;20560;-78
2023/06/22 07:38:44;;;;;;;6.32;2.30;;;23.30;61.00;;;;;;4920143;29;20028;-78
2023/06/22 07:41:10;;;;;;;7.40;2.55;;;23.60;60.00;;;;;;4920708;29;20035;-78
2023/06/22 07:43:36;;;;;;;3.92;2.47;;;23.90;59.00;;;;;;4920330;29;20391;-78
2023/06/22 07:46:06;;;;;;;5.88;2.40;;;24.30;57.10;;;;;;4903507;29;20533;-79
2023/06/22 07:48:32;;;;;;;4.78;2.60;;;25.20;55.20;;;;;;4920129;29;20047;-78
2023/06/22 07:50:57;;;;;;;5.13;2.30;;;26.40;52.60;;;;;;4916209;29;20041;-79
2023/06/22 07:53:23;;;;;;;4.45;2.58;;;26.90;50.60;;;;;;4901786;29;20111;-79
2023/06/22 07:55:49;;;;;;;6.32;2.50;;;26.60;50.70;;;;;;4901910;29;20487;-78
2023/06/22 07:58:16;;;;;;;5.75;3.17;;;26.80;49.90;;;;;;4915656;29;20477;-79
2023/06/22 08:00:41;;;;;;;5.35;2.65;;;27.50;48.60;;;;;;4903243;29;20119;-79
2023/06/22 08:03:07;;;;;;;5.05;2.50;;;28.80;46.00;;;;;;4919661;29;20133;-79
2023/06/22 08:05:33;;;;;;;5.93;2.90;;;29.80;42.40;;;;;;4920476;29;20451;-77
2023/06/22 08:07:59;;;;;;;4.78;2.70;;;30.50;40.80;;;;;;4905464;29;20036;-77
2023/06/22 08:10:25;;;;;;;4.93;2.67;;;29.30;42.80;;;;;;4923612;29;20402;-77
2023/06/22 08:12:52;;;;;;;4.93;2.50;;;28.40;44.50;;;;;;4938023;29;20478;-77
2023/06/22 08:15:18;;;;;;;3.88;2.53;;;28.30;44.90;;;;;;4938012;29;20055;-77
2023/06/22 08:17:44;;;;;;;4.40;2.63;;;28.30;45.50;;;;;;4923463;29;20032;-78
2023/06/22 08:20:13;;;;;;;4.57;2.45;;;30.20;42.00;;;;;;4919007;29;20024;-78
2023/06/22 08:22:40;;;;;;;4.00;2.60;;;31.70;40.20;;;;;;4919594;29;20040;-78
2023/06/22 08:25:07;;;;;;;4.20;2.55;;;32.60;38.70;;;;;;4920032;29;20051;-78
2023/06/22 08:27:33;;;;;;;5.32;2.35;;;33.40;37.10;;;;;;4902946;29;20039;-78
2023/06/22 08:29:59;;;;;;;4.35;2.20;;;31.90;38.20;;;;;;4898986;29;20149;-78
2023/06/22 08:32:29;;;;;;;4.70;2.58;;;31.50;38.50;;;;;;4928786;29;20071;-78
2023/06/22 08:34:55;;;;;;;5.57;2.50;;;32.00;38.80;;;;;;4919729;29;20098;-78
2023/06/22 08:37:23;;;;;;;3.92;2.20;;;32.10;38.40;;;;;;4902358;29;20032;-78
2023/06/22 08:39:50;;;;;;;4.63;2.50;;;31.10;38.20;;;;;;4918521;29;20031;-78
2023/06/22 08:42:16;;;;;;;4.53;2.80;;;32.40;37.90;;;;;;4917202;29;20066;-78
2023/06/22 08:44:41;;;;;;;3.88;2.45;;;33.50;36.40;;;;;;4918588;29;20028;-78
2023/06/22 08:47:07;;;;;;;4.82;2.67;;;34.50;34.00;;;;;;4919612;29;20032;-78
2023/06/22 08:49:33;;;;;;;4.88;2.55;;;35.20;33.60;;;;;;4902176;29;20399;-78
2023/06/22 08:51:58;;;;;;;4.63;2.33;;;35.80;33.50;;;;;;4919694;29;20550;-78
2023/06/22 08:54:24;;;;;;;4.90;2.67;;;36.20;31.90;;;;;;4919269;29;20091;-78
2023/06/22 08:56:50;;;;;;;3.80;2.50;;;36.80;31.90;;;;;;4917497;29;20036;-78
2023/06/22 08:59:15;;;;;;;4.25;2.72;;;36.90;31.10;;;;;;4902866;29;20534;-78
2023/06/22 09:01:45;;;;;;;4.75;2.60;;;37.20;31.20;;;;;;4917041;29;20546;-78
2023/06/22 09:04:11;;;;;;;5.80;2.63;;;37.10;31.00;;;;;;4902525;29;20028;-78
2023/06/22 09:06:41;;;;;;;4.22;2.72;;;37.30;31.20;;;;;;4919362;29;20447;-78
2023/06/22 09:09:06;;;;;;;3.42;2.45;;;37.50;30.90;;;;;;4918225;29;20032;-78
2023/06/22 09:11:32;;;;;;;3.80;2.67;;;37.70;30.30;;;;;;4931557;29;20039;-78
2023/06/22 09:13:58;;;;;;;5.95;2.70;;;37.90;29.70;;;;;;4938354;29;20536;-78
2023/06/22 09:16:23;;;;;;;3.55;2.40;;;38.20;30.00;;;;;;4934194;29;20046;-78
2023/06/22 09:18:49;;;;;;;4.20;2.80;;;38.40;29.40;;;;;;4925138;29;20059;-78
2023/06/22 09:21:15;;;;;;;3.22;2.70;;;38.50;29.30;;;;;;4925200;29;20028;-78
2023/06/22 09:23:40;;;;;;;4.97;2.75;;;38.60;29.40;;;;;;4908683;29;20029;-78
2023/06/22 09:26:06;;;;;;;4.32;2.55;;;38.80;28.90;;;;;;4925122;29;20092;-78
2023/06/22 09:28:33;;;;;;;3.88;2.90;;;38.80;28.80;;;;;;4925126;29;20042;-78
2023/06/22 09:30:59;;;;;;;4.03;2.50;;;38.50;28.90;;;;;;4928490;29;20055;-78
2023/06/22 09:33:26;;;;;;;3.95;2.90;;;38.70;28.20;;;;;;4934841;29;20091;-78
2023/06/22 09:35:52;;;;;;;3.72;2.70;;;38.80;28.80;;;;;;4908380;29;20036;-78
2023/06/22 09:38:17;;;;;;;4.07;2.72;;;38.80;27.90;;;;;;4924448;29;20024;-78
2023/06/22 09:40:43;;;;;;;4.30;2.92;;;38.90;28.70;;;;;;4925557;29;20025;-78
2023/06/22 09:43:09;;;;;;;4.82;3.13;;;39.10;28.50;;;;;;4924982;29;20088;-78
2023/06/22 09:45:34;;;;;;;3.88;2.70;;;39.00;28.20;;;;;;4925573;29;20534;-78
2023/06/22 09:48:00;;;;;;;4.18;2.80;;;39.30;28.60;;;;;;4925721;29;20024;-78
2023/06/22 09:50:26;;;;;;;3.40;2.92;;;39.30;26.90;;;;;;4925160;29;20412;-78
2023/06/22 09:52:54;;;;;;;4.25;3.15;;;39.50;26.90;;;;;;4924199;29;20024;-78
2023/06/22 09:55:21;;;;;;;3.47;2.50;;;39.40;27.70;;;;;;4925222;29;20024;-78
2023/06/22 09:57:46;;;;;;;4.72;2.78;;;39.70;28.00;;;;;;4922895;29;20020;-78
2023/06/22 10:00:13;;;;;;;7.18;3.00;;;39.80;27.40;;;;;;4925507;29;20104;-78
2023/06/22 10:02:40;;;;;;;4.40;3.03;;;39.70;27.40;;;;;;4925466;29;20114;-78
2023/06/22 10:05:07;;;;;;;4.93;3.00;;;39.50;27.50;;;;;;4923660;29;20032;-78
2023/06/22 10:07:33;;;;;;;5.30;3.08;;;39.40;28.00;;;;;;4930915;29;20179;-78
2023/06/22 10:09:59;;;;;;;5.38;3.05;;;39.50;28.40;;;;;;4924502;29;20048;-78
2023/06/22 10:12:25;;;;;;;5.07;2.97;;;39.50;28.60;;;;;;4944277;29;20019;-80
2023/06/22 10:14:51;;;;;;;3.78;2.80;;;39.40;28.00;;;;;;4944138;29;20039;-78
2023/06/22 10:17:16;;;;;;;4.35;2.92;;;39.20;27.70;;;;;;4930751;29;20032;-78
2023/06/22 10:19:42;;;;;;;3.78;2.80;;;38.70;27.20;;;;;;4908039;29;20024;-77
2023/06/22 10:22:08;;;;;;;4.47;2.80;;;38.30;29.20;;;;;;4925142;29;20036;-78
2023/06/22 10:24:33;;;;;;;4.20;2.85;;;38.20;29.10;;;;;;4924391;29;20027;-77
2023/06/22 10:26:59;;;;;;;4.38;2.58;;;37.90;29.70;;;;;;4923155;29;20083;-77
2023/06/22 10:29:24;;;;;;;4.60;3.08;;;37.90;30.30;;;;;;4921650;29;20431;-77
2023/06/22 10:31:50;;;;;;;3.97;2.63;;;37.70;30.60;;;;;;4931828;29;20064;-78
2023/06/22 10:34:16;;;;;;;5.90;3.00;;;37.50;30.30;;;;;;4925182;29;20060;-78
2023/06/22 10:36:41;;;;;;;4.50;2.60;;;37.50;29.90;;;;;;4921344;29;20482;-78
2023/06/22 10:39:07;;;;;;;4.53;2.33;;;37.30;31.20;;;;;;4921955;29;20025;-81
2023/06/22 10:41:33;;;;;;;4.38;2.42;;;37.00;31.60;;;;;;4921873;29;20432;-80
2023/06/22 10:43:58;;;;;;;4.07;2.35;;;36.50;32.90;;;;;;4921867;29;20054;-78
2023/06/22 10:46:25;;;;;;;4.30;2.25;;;35.90;33.00;;;;;;4921356;29;20470;-79
2023/06/22 10:48:54;;;;;;;3.90;2.20;;;35.30;33.20;;;;;;4904920;29;20059;-79
2023/06/22 10:51:19;;;;;;;4.80;2.58;;;34.70;34.40;;;;;;4921283;29;20032;-82
2023/06/22 10:53:45;;;;;;;4.05;2.70;;;34.30;34.80;;;;;;4921214;29;20499;-78
2023/06/22 10:56:11;;;;;;;4.88;2.50;;;33.70;35.80;;;;;;4904694;29;20120;-78
2023/06/22 10:58:36;;;;;;;4.63;2.10;;;33.40;36.70;;;;;;4921279;29;20459;-78
2023/06/22 11:01:03;;;;;;;4.85;2.67;;;33.20;36.90;;;;;;4920363;29;20028;-78
2023/06/22 11:03:28;;;;;;;6.03;2.67;;;33.00;36.40;;;;;;4920978;29;20039;-78
2023/06/22 11:05:54;;;;;;;4.32;2.40;;;32.90;37.20;;;;;;4920819;29;20036;-78
2023/06/22 11:08:20;;;;;;;5.57;2.60;;;32.60;37.20;;;;;;4921417;29;20024;-78
2023/06/22 11:10:45;;;;;;;4.50;2.60;;;32.40;38.50;;;;;;4927794;29;20038;-85
2023/06/22 11:13:11;;;;;;;5.38;2.70;;;32.30;38.30;;;;;;4932102;29;20044;-78
2023/06/22 11:15:37;;;;;;;5.78;2.80;;;32.10;37.40;;;;;;4921128;29;20055;-79
2023/06/22 11:18:05;;;;;;;5.15;2.30;;;32.10;38.10;;;;;;4921440;29;20032;-77
2023/06/22 11:20:31;;;;;;;3.75;2.30;;;32.00;38.10;;;;;;4921254;29;20032;-77
2023/06/22 11:22:56;;;;;;;6.00;2.47;;;31.90;38.40;;;;;;4920560;29;20040;-78
2023/06/22 11:25:22;;;;;;;5.00;2.47;;;31.80;39.20;;;;;;4920886;29;20035;-76
2023/06/22 11:27:47;;;;;;;4.15;2.67;;;31.80;39.80;;;;;;4920715;29;20079;-76
2023/06/22 11:30:13;;;;;;;4.72;2.90;;;31.70;38.70;;;;;;4920401;29;20573;-77
2023/06/22 11:32:39;;;;;;;5.70;2.60;;;31.50;38.10;;;;;;4933414;29;20059;-78
2023/06/22 11:35:04;;;;;;;5.50;2.60;;;31.50;39.60;;;;;;4920743;29;20024;-77
2023/06/22 11:37:30;;;;;;;4.72;2.50;;;31.40;39.00;;;;;;4919947;29;20479;-78
2023/06/22 11:39:56;;;;;;;6.07;2.38;;;31.10;39.10;;;;;;4921078;29;20028;-78
2023/06/22 11:42:23;;;;;;;4.40;2.35;;;30.90;40.20;;;;;;4918703;29;20059;-78
2023/06/22 11:44:49;;;;;;;4.50;2.30;;;31.00;40.60;;;;;;4915981;29;20455;-77
2023/06/22 11:47:14;;;;;;;5.25;2.42;;;31.00;39.70;;;;;;4914977;29;20090;-75
2023/06/22 11:49:41;;;;;;;4.78;2.60;;;30.80;40.40;;;;;;4930363;29;20032;-77
2023/06/22 11:52:07;;;;;;;3.75;2.30;;;30.90;41.10;;;;;;4920050;29;20067;-77
2023/06/22 11:54:33;;;;;;;4.97;2.42;;;30.80;40.10;;;;;;4920498;29;20031;-77
2023/06/22 11:56:59;;;;;;;4.80;2.25;;;30.80;40.10;;;;;;4920293;29;20028;-76
2023/06/22 11:59:24;;;;;;;5.57;2.80;;;30.80;41.20;;;;;;4920058;29;20020;-76
2023/06/22 12:01:51;;;;;;;4.50;2.63;;;30.70;40.00;;;;;;4920377;29;20117;-77
2023/06/22 12:04:17;;;;;;;4.63;2.53;;;30.80;41.10;;;;;;4920147;29;20044;-76
2023/06/22 12:06:43;;;;;;;4.20;2.38;;;30.80;40.30;;;;;;4902797;29;20036;-77
2023/06/22 12:09:09;;;;;;;4.40;2.70;;;30.90;41.40;;;;;;4919935;29;20132;-77
2023/06/22 12:11:35;;;;;;;4.32;2.38;;;30.80;40.50;;;;;;4920313;29;20032;-77
2023/06/22 12:14:02;;;;;;;5.40;2.38;;;30.80;40.40;;;;;;4919483;29;20043;-77
2023/06/22 12:16:30;;;;;;;5.82;2.72;;;30.70;40.50;;;;;;4920219;29;20086;-76
2023/06/22 12:18:56;;;;;;;4.63;2.55;;;30.80;40.50;;;;;;4919648;29;20538;-76
2023/06/22 12:21:22;;;;;;;6.13;2.63;;;30.80;40.80;;;;;;4920113;29;20032;-76
2023/06/22 12:23:48;;;;;;;4.70;2.75;;;30.80;41.30;;;;;;4919660;29;20032;-76
2023/06/22 12:26:13;;;;;;;6.05;2.75;;;30.80;41.20;;;;;;4919583;29;20040;-76
2023/06/22 12:28:39;;;;;;;5.70;2.63;;;30.90;40.30;;;;;;4919893;29;20028;-76
2023/06/22 12:31:05;;;;;;;4.10;2.55;;;30.90;42.00;;;;;;4923795;29;20055;-76
2023/06/22 12:33:30;;;;;;;4.80;2.72;;;30.70;41.10;;;;;;4928590;29;20471;-76
2023/06/22 12:35:56;;;;;;;4.50;2.70;;;30.80;40.50;;;;;;4919384;29;20051;-76
2023/06/22 12:38:22;;;;;;;4.70;2.60;;;30.80;40.80;;;;;;4919263;29;20024;-78
2023/06/22 12:40:49;;;;;;;4.15;2.67;;;30.90;40.70;;;;;;4919765;29;20084;-76
2023/06/22 12:43:15;;;;;;;6.78;2.95;;;30.70;41.50;;;;;;4919054;29;20074;-76
2023/06/22 12:45:40;;;;;;;5.20;2.50;;;30.70;41.30;;;;;;4906670;29;20040;-76
2023/06/22 12:48:06;;;;;;;5.43;2.60;;;30.60;41.60;;;;;;4919190;29;20035;-77
2023/06/22 12:50:32;;;;;;;6.00;2.95;;;30.50;41.10;;;;;;4919275;29;20123;-76
2023/06/22 12:52:57;;;;;;;5.38;2.80;;;30.40;41.50;;;;;;4919332;29;20031;-76
2023/06/22 12:55:23;;;;;;;6.30;2.80;;;30.20;42.30;;;;;;4919643;29;20099;-77
2023/06/22 12:57:49;;;;;;;5.88;3.10;;;30.30;42.70;;;;;;4919052;29;20059;-77
2023/06/22 13:00:15;;;;;;;5.72;2.80;;;30.30;42.10;;;;;;4918008;29;20032;-77
2023/06/22 13:02:40;;;;;;;5.25;2.90;;;30.30;42.70;;;;;;4919457;29;20478;-77
2023/06/22 13:05:06;;;;;;;5.68;3.00;;;30.30;43.30;;;;;;4918986;29;20110;-77
2023/06/22 13:07:32;;;;;;;4.55;2.70;;;30.40;42.10;;;;;;4919356;29;20024;-77
2023/06/22 13:09:58;;;;;;;4.13;2.72;;;30.40;42.50;;;;;;4919547;29;20486;-78
2023/06/22 13:12:23;;;;;;;4.55;2.72;;;30.40;42.30;;;;;;4937331;29;20549;-78
2023/06/22 13:14:49;;;;;;;5.57;2.90;;;30.30;42.90;;;;;;4910466;29;20394;-78
2023/06/22 13:17:15;;;;;;;6.10;3.00;;;30.00;42.80;;;;;;4919438;29;20533;-78
2023/06/22 13:19:41;;;;;;;6.45;2.95;;;29.90;43.00;;;;;;4914041;29;20487;-78
2023/06/22 13:22:33;;;;;;;5.00;2.47;;;30.10;43.20;;;;;;4919030;29;20409;-78
2023/06/22 13:24:59;;;;;;;4.72;2.92;;;30.40;42.70;;;;;;4919258;29;20052;-78
2023/06/22 13:27:25;;;;;;;3.97;2.70;;;30.50;42.60;;;;;;4902238;29;20028;-78
2023/06/22 13:29:52;;;;;;;4.88;2.85;;;30.50;42.60;;;;;;4918653;29;20033;-78
2023/06/22 13:32:17;;;;;;;5.32;3.10;;;30.70;42.50;;;;;;4918822;29;20054;-78
2023/06/22 13:34:43;;;;;;;5.22;3.30;;;30.80;42.30;;;;;;4902111;29;20395;-77
2023/06/22 13:37:09;;;;;;;5.15;3.08;;;30.60;41.90;;;;;;4919072;29;20040;-78
2023/06/22 13:39:35;;;;;;;5.00;2.78;;;30.50;42.40;;;;;;4918469;29;20032;-78
2023/06/22 13:42:00;;;;;;;4.30;2.70;;;30.50;42.70;;;;;;4918881;29;20028;-77
2023/06/22 13:44:28;;;;;;;4.03;2.65;;;30.30;42.50;;;;;;4918603;29;20032;-77
2023/06/22 13:46:55;;;;;;;4.05;2.50;;;30.20;41.70;;;;;;4918530;29;20032;-78
2023/06/22 13:49:21;;;;;;;4.95;2.55;;;30.00;42.00;;;;;;4900561;29;20060;-78
2023/06/22 13:51:48;;;;;;;7.85;2.72;;;29.80;42.80;;;;;;4919144;29;20068;-77
2023/06/22 13:54:14;;;;;;;5.35;3.10;;;29.80;42.60;;;;;;4917908;29;20116;-78
2023/06/22 13:56:39;;;;;;;4.53;2.60;;;30.00;42.80;;;;;;4918268;29;20036;-78
2023/06/22 13:59:06;;;;;;;4.93;2.22;;;30.10;42.20;;;;;;4918626;29;20024;-78
2023/06/22 14:01:32;;;;;;;3.78;2.38;;;30.30;42.30;;;;;;4920545;29;20021;-77
2023/06/22 14:03:57;;;;;;;4.93;2.50;;;30.30;41.90;;;;;;4921996;29;20554;-78
2023/06/22 14:06:23;;;;;;;6.65;2.70;;;30.30;42.30;;;;;;4922396;29;20038;-78
2023/06/22 14:08:50;;;;;;;4.43;2.33;;;30.20;42.10;;;;;;4922373;29;20394;-78
2023/06/22 14:11:16;;;;;;;5.20;2.50;;;30.10;41.50;;;;;;4932577;29;20087;-78
2023/06/22 14:13:42;;;;;;;4.65;2.40;;;30.10;42.10;;;;;;4941324;29;20031;-78
2023/06/22 14:16:08;;;;;;;6.40;2.30;;;29.90;41.90;;;;;;4941105;29;20465;-78
2023/06/22 14:18:34;;;;;;;3.80;2.33;;;29.90;42.10;;;;;;4922888;29;20115;-78
2023/06/22 14:20:59;;;;;;;3.85;2.13;;;29.90;41.90;;;;;;4922372;29;20666;-78
2023/06/22 14:23:26;;;;;;;4.97;2.35;;;30.00;42.30;;;;;;4922165;29;20024;-78
2023/06/22 14:25:52;;;;;;;3.80;2.20;;;30.10;41.80;;;;;;4922130;29;20048;-78
2023/06/22 14:28:18;;;;;;;4.82;2.25;;;30.10;42.60;;;;;;4921626;29;20490;-78
2023/06/22 14:30:43;;;;;;;4.90;2.50;;;29.90;41.40;;;;;;4906313;29;20095;-78
2023/06/22 14:33:09;;;;;;;10.07;2.75;;;29.90;41.90;;;;;;4933795;29;20047;-79
2023/06/22 14:35:35;;;;;;;5.72;2.72;;;29.90;42.50;;;;;;4921685;29;20028;-78
2023/06/22 14:38:00;;;;;;;5.72;2.30;;;29.90;41.20;;;;;;4921356;29;20032;-78
2023/06/22 14:42:52;;;;;;;4.25;2.40;;;29.80;41.10;;;;;;4919715;29;20032;-78
2023/06/22 14:45:17;;;;;;;4.03;2.03;;;29.80;40.80;;;;;;4921134;29;20072;-78
2023/06/22 14:47:43;;;;;;;4.45;2.42;;;29.80;41.20;;;;;;4921922;29;20491;-79
2023/06/22 14:50:09;;;;;;;3.25;1.90;;;29.80;40.50;;;;;;4921710;29;20064;-78
2023/06/22 14:52:34;;;;;;;4.50;2.35;;;29.80;40.70;;;;;;4919055;29;20510;-78
2023/06/22 14:55:00;;;;;;;4.30;2.40;;;29.70;41.00;;;;;;4920369;29;20028;-78
2023/06/22 14:57:26;;;;;;;5.43;2.08;;;29.70;40.30;;;;;;4921720;29;20028;-78
2023/06/22 14:59:51;;;;;;;5.22;2.13;;;29.60;40.80;;;;;;4921107;29;20032;-78
2023/06/22 15:02:17;;;;;;;4.25;2.00;;;29.50;40.80;;;;;;4920916;29;20039;-78
2023/06/22 15:04:43;;;;;;;4.53;2.28;;;29.50;41.30;;;;;;4904678;29;20040;-78
2023/06/22 15:07:09;;;;;;;5.25;2.20;;;29.40;40.60;;;;;;4921568;29;20040;-78
2023/06/22 15:09:34;;;;;;;4.43;2.13;;;29.40;40.20;;;;;;4921336;29;20036;-78
2023/06/22 15:12:01;;;;;;;3.50;2.00;;;29.30;40.30;;;;;;4937020;29;20028;-78
2023/06/22 15:14:27;;;;;;;3.72;2.08;;;29.10;40.10;;;;;;4939522;29;20031;-78
2023/06/22 15:16:53;;;;;;;3.63;1.98;;;29.10;39.50;;;;;;4923621;29;20119;-78
2023/06/22 15:19:19;;;;;;;4.60;2.00;;;29.20;39.90;;;;;;4921258;29;20060;-78
2023/06/22 15:21:44;;;;;;;3.95;2.15;;;29.20;39.00;;;;;;4920826;29;20025;-78
2023/06/22 15:24:11;;;;;;;3.05;1.80;;;29.10;39.70;;;;;;4920900;29;20032;-78
2023/06/22 15:26:37;;;;;;;3.75;1.75;;;29.10;40.40;;;;;;4920780;29;20024;-78
2023/06/22 15:29:03;;;;;;;6.00;1.90;;;29.20;39.90;;;;;;4921031;29;20163;-78
2023/06/22 15:31:29;;;;;;;4.10;2.03;;;29.20;39.60;;;;;;4924952;29;20058;-78
2023/06/22 15:33:54;;;;;;;3.88;2.03;;;29.10;39.60;;;;;;4918787;29;20036;-78
2023/06/22 15:36:20;;;;;;;4.10;2.10;;;29.10;39.40;;;;;;4920566;29;20040;-78
2023/06/22 15:38:47;;;;;;;5.18;1.83;;;29.00;39.60;;;;;;4903771;29;20036;-78
2023/06/22 15:41:12;;;;;;;3.58;1.80;;;29.00;39.50;;;;;;4903789;29;20043;-78
2023/06/22 15:43:38;;;;;;;3.85;2.00;;;29.00;39.80;;;;;;4920294;29;20028;-78
2023/06/22 15:46:04;;;;;;;3.55;1.80;;;28.90;39.60;;;;;;4920696;29;20028;-78
2023/06/22 15:48:29;;;;;;;3.80;1.98;;;28.90;39.50;;;;;;4920704;29;20040;-78
2023/06/22 15:50:55;;;;;;;4.15;1.90;;;28.80;40.90;;;;;;4920412;29;20031;-78
2023/06/22 15:53:21;;;;;;;4.10;1.80;;;28.80;40.50;;;;;;4919651;29;20040;-78
2023/06/22 15:55:46;;;;;;;3.63;1.80;;;28.70;40.30;;;;;;4920796;29;20095;-78
2023/06/22 15:58:12;;;;;;;4.07;1.80;;;28.70;38.80;;;;;;4919530;29;20372;-78
2023/06/22 16:00:38;;;;;;;5.07;1.80;;;28.50;40.00;;;;;;4919789;29;20775;-78
2023/06/22 16:03:04;;;;;;;3.38;1.77;;;28.60;40.40;;;;;;4919446;29;20071;-78
2023/06/22 16:05:29;;;;;;;4.22;1.98;;;28.60;39.70;;;;;;4920344;29;20064;-78
2023/06/22 16:07:58;;;;;;;4.28;2.10;;;28.50;39.50;;;;;;4920335;29;20060;-78
2023/06/22 16:10:23;;;;;;;4.90;1.90;;;28.40;40.10;;;;;;4920918;29;20030;-78
2023/06/22 16:12:50;;;;;;;3.10;1.70;;;28.60;40.10;;;;;;4919248;29;20048;-78
2023/06/22 16:15:15;;;;;;;3.83;2.03;;;28.60;40.70;;;;;;4919646;29;20027;-78
2023/06/22 16:17:42;;;;;;;3.88;1.80;;;28.70;39.60;;;;;;4919952;29;20511;-77
2023/06/22 16:20:09;;;;;;;3.30;1.88;;;28.70;39.80;;;;;;4919785;29;20056;-78
2023/06/22 16:22:35;;;;;;;4.28;1.80;;;28.60;39.90;;;;;;4920093;29;20818;-78
2023/06/22 16:25:01;;;;;;;4.10;1.90;;;28.40;39.90;;;;;;4919896;29;20020;-78
2023/06/22 16:27:30;;;;;;;4.35;2.03;;;28.30;39.50;;;;;;4919540;29;20036;-78
2023/06/22 16:29:55;;;;;;;3.50;2.00;;;28.20;40.40;;;;;;4919873;29;20035;-78
2023/06/22 16:32:21;;;;;;;3.75;1.92;;;28.10;40.70;;;;;;4931082;29;20055;-78
2023/06/22 16:34:46;;;;;;;4.35;1.95;;;28.10;41.00;;;;;;4920175;29;20039;-78
2023/06/22 16:37:13;;;;;;;4.00;1.92;;;28.30;41.60;;;;;;4919238;29;20063;-78
2023/06/22 16:39:39;;;;;;;3.00;1.65;;;28.30;41.80;;;;;;4919781;29;20107;-78
2023/06/22 16:42:04;;;;;;;3.53;1.95;;;28.30;41.40;;;;;;4919453;29;20055;-78
2023/06/22 16:44:30;;;;;;;4.05;1.92;;;28.20;40.70;;;;;;4919775;29;20462;-78
2023/06/22 16:46:58;;;;;;;3.63;2.00;;;28.20;40.50;;;;;;4919699;29;20036;-78
2023/06/22 16:49:23;;;;;;;6.45;1.90;;;28.10;41.20;;;;;;4919448;29;20996;-78
2023/06/22 16:51:49;;;;;;;3.78;1.80;;;28.10;41.30;;;;;;4919654;29;20083;-78
2023/06/22 16:54:15;;;;;;;4.03;2.05;;;28.00;41.70;;;;;;4919203;29;20088;-78
2023/06/22 16:56:41;;;;;;;5.43;2.20;;;27.90;42.10;;;;;;4919357;29;20111;-78
2023/06/22 16:59:07;;;;;;;5.22;2.85;;;27.90;42.10;;;;;;4918506;29;20024;-78
2023/06/22 17:01:34;;;;;;;3.53;2.13;;;27.90;42.80;;;;;;4921353;29;20734;-78
2023/06/22 17:04:07;;;;;;;4.40;2.13;;;27.80;43.10;;;;;;4928311;29;20517;-79
2023/06/22 17:06:32;;;;;;;5.80;2.35;;;27.60;43.00;;;;;;4928698;29;20032;-79
2023/06/22 17:09:01;;;;;;;3.80;2.28;;;27.60;43.30;;;;;;4927038;28;20092;-78
2023/06/22 17:11:28;;;;;;;4.47;2.10;;;27.60;43.20;;;;;;4925054;29;20036;-78
2023/06/22 17:13:54;;;;;;;4.70;2.42;;;27.50;44.10;;;;;;4927700;29;20028;-78